createdAt,value
2023-01-15T00:08:55.906Z,9.60
2023-01-15T00:11:24.780Z,9.90
2023-01-15T00:13:52.474Z,9.90
2023-01-15T00:16:22.738Z,10.00
2023-01-15T00:19:06.253Z,10.00
2023-01-15T00:21:35.472Z,10.00
2023-01-15T00:24:23.167Z,10.10
2023-01-15T00:35:24.218Z,10.30
2023-01-15T00:38:00.512Z,9.40
2023-01-15T00:40:31.847Z,8.60
2023-01-15T00:43:00.427Z,8.40
2023-01-15T00:45:28.529Z,8.30
2023-01-15T00:47:58.065Z,8.20
2023-01-15T00:50:30.290Z,8.00
2023-01-15T00:53:01.575Z,8.00
2023-01-15T00:55:30.138Z,8.00
2023-01-15T01:00:36.656Z,8.10
2023-01-15T01:03:04.880Z,8.00
2023-01-15T01:05:37.013Z,7.80
2023-01-15T01:08:19.633Z,7.80
2023-01-15T01:11:09.314Z,7.80
2023-01-15T01:13:42.764Z,7.70
2023-01-15T01:16:25.036Z,7.50
2023-01-15T01:26:56.906Z,7.50
2023-01-15T01:29:25.602Z,6.90
2023-01-15T01:31:57.278Z,6.60
2023-01-15T01:34:25.121Z,6.40
2023-01-15T01:37:04.034Z,6.30
2023-01-15T01:39:47.223Z,6.20
2023-01-15T01:42:19.741Z,6.20
2023-01-15T01:53:24.535Z,5.90
2023-01-15T01:55:53.443Z,5.90
2023-01-15T01:58:30.855Z,5.80
2023-01-15T02:01:03.555Z,5.70
2023-01-15T02:03:39.579Z,5.80
2023-01-15T02:06:10.619Z,5.80
2023-01-15T02:08:51.101Z,5.80
2023-01-15T02:16:13.322Z,5.80
2023-01-15T02:18:48.644Z,5.60
2023-01-15T02:21:27.557Z,5.60
2023-01-15T02:24:09.909Z,5.60
2023-01-15T02:27:02.290Z,5.40
2023-01-15T02:29:39.217Z,5.30
2023-01-15T02:34:53.486Z,5.00
2023-01-15T02:37:26.485Z,4.60
2023-01-15T02:40:01.149Z,4.60
2023-01-15T02:42:30.870Z,4.60
2023-01-15T02:45:01.631Z,4.40
2023-01-15T02:47:35.356Z,4.30
2023-01-15T02:50:29.288Z,4.20
2023-01-15T02:55:44.616Z,4.20
2023-01-15T02:58:17.708Z,4.20
2023-01-15T03:00:49.318Z,4.20
2023-01-15T03:03:23.682Z,4.30
2023-01-15T03:06:14.415Z,4.10
2023-01-15T03:08:42.455Z,4.10
2023-01-15T03:11:18.505Z,4.10
2023-01-15T03:13:56.359Z,4.10
2023-01-15T03:30:44.704Z,4.10
2023-01-15T03:33:12.649Z,4.10
2023-01-15T03:35:46.876Z,3.90
2023-01-15T03:38:18.080Z,3.80
2023-01-15T03:40:54.347Z,3.70
2023-01-15T03:43:43.496Z,3.50
2023-01-15T03:46:33.065Z,3.50
2023-01-15T03:49:08.325Z,3.60
2023-01-15T03:56:51.064Z,3.50
2023-01-15T03:59:41.104Z,3.50
2023-01-15T04:02:11.732Z,3.60
2023-01-15T04:04:47.209Z,3.60
2023-01-15T04:07:31.329Z,3.50
2023-01-15T04:09:58.522Z,3.60
2023-01-15T04:12:39.502Z,3.50
2023-01-15T04:17:46.436Z,3.40
2023-01-15T04:20:14.069Z,3.30
2023-01-15T04:22:41.423Z,3.30
2023-01-15T04:25:09.913Z,3.40
2023-01-15T04:27:38.212Z,3.60
2023-01-15T04:30:07.252Z,3.60
2023-01-15T04:32:36.044Z,3.50
2023-01-15T04:35:07.778Z,3.50
2023-01-15T04:43:07.847Z,3.50
2023-01-15T04:45:40.814Z,3.30
2023-01-15T04:48:17.513Z,3.20
2023-01-15T04:51:16.169Z,3.30
2023-01-15T04:54:10.735Z,3.50
2023-01-15T04:56:41.208Z,3.40
2023-01-15T04:59:20.048Z,3.60
2023-01-15T05:02:07.049Z,3.50
2023-01-15T05:04:45.184Z,3.60
2023-01-15T05:07:13.494Z,3.70
2023-01-15T05:10:31.417Z,3.70
2023-01-15T05:18:24.359Z,3.60
2023-01-15T05:20:51.579Z,3.50
2023-01-15T05:23:19.095Z,3.50
2023-01-15T05:25:56.313Z,3.50
2023-01-15T05:28:28.201Z,3.40
2023-01-15T05:30:55.715Z,3.60
2023-01-15T05:33:24.345Z,3.40
2023-01-15T05:35:51.835Z,3.40
2023-01-15T05:38:21.931Z,3.30
2023-01-15T05:45:56.283Z,3.50
2023-01-15T05:48:27.112Z,3.60
2023-01-15T05:50:54.450Z,3.70
2023-01-15T05:53:21.646Z,3.80
2023-01-15T05:55:48.988Z,3.70
2023-01-15T05:58:17.388Z,3.40
2023-01-15T06:00:47.530Z,3.60
2023-01-15T06:05:58.094Z,3.90
2023-01-15T06:08:27.448Z,3.90
2023-01-15T06:10:55.971Z,3.70
2023-01-15T06:13:32.551Z,3.50
2023-01-15T06:16:00.457Z,3.90
2023-01-15T06:18:28.025Z,3.90
2023-01-15T06:20:58.532Z,3.70
2023-01-15T06:28:34.338Z,3.20
2023-01-15T06:31:05.369Z,3.20
2023-01-15T06:33:36.600Z,3.20
2023-01-15T06:36:12.181Z,3.30
2023-01-15T06:38:40.059Z,3.20
2023-01-15T06:41:33.798Z,3.10
2023-01-15T06:44:20.118Z,2.90
2023-01-15T06:49:47.744Z,2.60
2023-01-15T06:52:15.062Z,2.80
2023-01-15T06:54:46.380Z,2.80
2023-01-15T06:57:15.999Z,2.70
2023-01-15T06:59:50.158Z,2.90
2023-01-15T07:02:27.683Z,2.80
2023-01-15T07:04:58.015Z,2.60
2023-01-15T07:07:25.524Z,2.80
2023-01-15T07:14:58.548Z,3.00
2023-01-15T07:17:26.033Z,3.20
2023-01-15T07:19:58.190Z,3.30
2023-01-15T07:22:52.693Z,3.70
2023-01-15T07:25:23.126Z,3.90
2023-01-15T07:27:53.816Z,4.10
2023-01-15T07:30:25.453Z,4.20
2023-01-15T07:32:52.977Z,4.40
2023-01-15T07:40:26.497Z,4.10
2023-01-15T07:43:14.335Z,4.00
2023-01-15T07:46:00.308Z,4.10
2023-01-15T07:48:45.609Z,4.40
2023-01-15T07:51:16.470Z,4.40
2023-01-15T07:53:47.264Z,4.30
2023-01-15T07:56:17.651Z,4.20
2023-01-15T07:58:51.682Z,4.00
2023-01-15T08:06:25.824Z,3.80
2023-01-15T08:08:53.088Z,3.50
2023-01-15T08:11:40.560Z,3.50
2023-01-15T08:14:27.763Z,3.70
2023-01-15T08:17:00.123Z,3.80
2023-01-15T08:19:29.470Z,3.80
2023-01-15T08:22:01.275Z,4.00
2023-01-15T08:28:01.698Z,4.10
2023-01-15T08:30:30.433Z,4.20
2023-01-15T08:33:02.662Z,4.20
2023-01-15T08:35:36.796Z,4.10
2023-01-15T08:38:11.490Z,4.40
2023-01-15T08:40:58.104Z,4.30
2023-01-15T08:43:33.075Z,4.50
2023-01-15T08:51:06.239Z,4.10
2023-01-15T08:53:33.833Z,4.30
2023-01-15T08:56:01.657Z,4.40
2023-01-15T08:58:29.892Z,4.30
2023-01-15T09:00:58.100Z,4.50
2023-01-15T09:03:26.254Z,4.40
2023-01-15T09:05:53.795Z,4.60
2023-01-15T09:08:37.408Z,4.60
2023-01-15T09:15:52.598Z,4.40
2023-01-15T09:18:20.318Z,4.70
2023-01-15T09:20:47.942Z,4.60
2023-01-15T09:23:16.181Z,4.40
2023-01-15T09:25:53.014Z,4.50
2023-01-15T09:28:23.952Z,4.50
2023-01-15T09:30:53.888Z,4.50
2023-01-15T09:38:26.600Z,4.50
2023-01-15T09:40:56.747Z,4.70
2023-01-15T09:43:50.005Z,4.70
2023-01-15T09:46:24.796Z,4.70
2023-01-15T09:49:04.305Z,4.70
2023-01-15T09:51:39.181Z,4.90
2023-01-15T09:54:21.196Z,4.60
2023-01-15T10:01:55.625Z,4.00
2023-01-15T10:04:37.175Z,4.30
2023-01-15T10:07:13.529Z,4.50
2023-01-15T10:09:42.526Z,4.70
2023-01-15T10:12:39.380Z,4.80
2023-01-15T10:15:25.227Z,4.80
2023-01-15T10:23:42.417Z,4.90
2023-01-15T10:26:18.437Z,4.90
2023-01-15T10:29:03.061Z,4.80
2023-01-15T10:31:51.278Z,4.90
2023-01-15T10:35:08.423Z,5.00
2023-01-15T10:37:45.648Z,4.80
2023-01-15T10:40:28.808Z,5.00
2023-01-15T10:45:52.236Z,4.90
2023-01-15T10:48:30.505Z,5.10
2023-01-15T10:51:03.141Z,4.90
2023-01-15T10:53:35.797Z,5.20
2023-01-15T10:56:12.900Z,5.20
2023-01-15T10:58:47.169Z,5.10
2023-01-15T11:01:21.779Z,5.20
2023-01-15T11:06:34.611Z,5.40
2023-01-15T11:09:11.547Z,5.10
2023-01-15T11:12:00.709Z,5.30
2023-01-15T11:14:54.334Z,5.40
2023-01-15T11:17:41.679Z,5.50
2023-01-15T11:20:22.876Z,5.60
2023-01-15T11:22:51.428Z,5.70
2023-01-15T11:30:36.916Z,5.60
2023-01-15T11:33:11.197Z,5.20
2023-01-15T11:35:51.872Z,5.10
2023-01-15T11:38:22.810Z,5.10
2023-01-15T11:40:55.602Z,5.20
2023-01-15T11:43:44.020Z,5.50
2023-01-15T11:46:53.106Z,5.40
2023-01-15T11:54:54.429Z,5.40
2023-01-15T11:57:29.481Z,5.10
2023-01-15T11:59:58.076Z,5.10
2023-01-15T12:02:38.923Z,4.90
2023-01-15T12:05:17.540Z,4.80
2023-01-15T12:07:46.004Z,4.60
2023-01-15T12:10:42.799Z,4.80
2023-01-15T12:18:52.615Z,5.40
2023-01-15T12:21:41.781Z,5.50
2023-01-15T12:24:38.498Z,5.70
2023-01-15T12:27:22.631Z,5.50
2023-01-15T12:29:55.944Z,5.40
2023-01-15T12:32:36.044Z,5.40
2023-01-15T12:42:51.048Z,6.30
2023-01-15T12:45:29.873Z,6.30
2023-01-15T12:48:05.087Z,6.60
2023-01-15T12:50:45.303Z,6.30
2023-01-15T12:53:19.771Z,6.40
2023-01-15T12:55:55.785Z,6.00
2023-01-15T13:01:36.371Z,6.10
2023-01-15T13:04:17.653Z,6.00
2023-01-15T13:06:50.579Z,5.80
2023-01-15T13:09:31.959Z,5.90
2023-01-15T13:11:59.560Z,5.60
2023-01-15T13:14:27.326Z,5.90
2023-01-15T13:17:01.242Z,5.60
2023-01-15T13:25:15.814Z,5.60
2023-01-15T13:28:07.225Z,6.30
2023-01-15T13:30:52.091Z,6.10
2023-01-15T13:33:29.976Z,6.10
2023-01-15T13:36:06.437Z,6.20
2023-01-15T13:38:44.068Z,6.30
2023-01-15T13:41:41.306Z,6.10
2023-01-15T13:49:20.888Z,5.80
2023-01-15T13:51:51.533Z,5.80
2023-01-15T13:54:30.209Z,5.70
2023-01-15T13:57:10.780Z,5.70
2023-01-15T13:59:46.574Z,6.00
2023-01-15T14:02:39.234Z,5.90
2023-01-15T14:05:31.266Z,5.90
2023-01-15T14:13:21.415Z,5.80
2023-01-15T14:16:04.456Z,6.10
2023-01-15T14:19:09.352Z,6.10
2023-01-15T14:21:48.339Z,6.10
2023-01-15T14:24:46.302Z,6.10
2023-01-15T14:27:38.695Z,6.00
2023-01-15T14:30:30.303Z,6.10
2023-01-15T14:40:35.393Z,6.40
2023-01-15T14:43:12.571Z,6.20
2023-01-15T14:45:46.738Z,6.10
2023-01-15T14:48:23.660Z,6.20
2023-01-15T14:50:54.201Z,6.30
2023-01-15T14:53:34.351Z,6.20
2023-01-15T14:56:16.720Z,6.00
2023-01-15T15:04:00.391Z,6.40
2023-01-15T15:06:33.519Z,6.10
2023-01-15T15:09:13.975Z,6.20
2023-01-15T15:12:05.823Z,6.50
2023-01-15T15:14:39.661Z,6.50
2023-01-15T15:17:20.340Z,6.50
2023-01-15T15:20:03.155Z,6.60
2023-01-15T15:27:41.773Z,6.70
2023-01-15T15:30:18.608Z,6.70
2023-01-15T15:32:49.282Z,6.60
2023-01-15T15:35:33.222Z,6.40
2023-01-15T15:38:09.816Z,6.50
2023-01-15T15:40:40.586Z,6.40
2023-01-15T15:52:00.785Z,6.00
2023-01-15T15:54:34.453Z,6.00
2023-01-15T15:57:18.190Z,6.00
2023-01-15T15:59:52.887Z,6.00
2023-01-15T16:02:26.810Z,5.90
2023-01-15T16:04:59.225Z,5.70
2023-01-15T16:07:49.291Z,5.70
2023-01-15T16:14:55.236Z,5.80
2023-01-15T16:17:29.832Z,5.70
2023-01-15T16:20:06.220Z,5.70
2023-01-15T16:22:37.139Z,5.70
2023-01-15T16:25:11.871Z,6.00
2023-01-15T16:27:43.655Z,6.00
2023-01-15T16:30:27.016Z,6.30
2023-01-15T16:38:16.307Z,6.00
2023-01-15T16:40:51.796Z,5.60
2023-01-15T16:43:29.559Z,5.70
2023-01-15T16:46:09.864Z,5.80
2023-01-15T16:48:46.510Z,5.80
2023-01-15T16:51:35.541Z,5.80
2023-01-15T16:54:13.895Z,5.70
2023-01-15T17:02:08.225Z,5.60
2023-01-15T17:04:42.335Z,5.60
2023-01-15T17:07:23.053Z,5.70
2023-01-15T17:10:02.985Z,5.80
2023-01-15T17:12:37.594Z,5.50
2023-01-15T17:15:55.375Z,5.50
2023-01-15T17:21:17.941Z,5.50
2023-01-15T17:23:51.034Z,5.60
2023-01-15T17:26:25.627Z,5.40
2023-01-15T17:28:58.542Z,5.70
2023-01-15T17:31:31.019Z,5.50
2023-01-15T17:34:01.956Z,5.20
2023-01-15T17:36:34.961Z,5.20
2023-01-15T17:46:11.543Z,5.30
2023-01-15T17:48:44.109Z,5.10
2023-01-15T17:51:23.275Z,5.30
2023-01-15T17:53:57.094Z,5.10
2023-01-15T17:56:45.116Z,5.20
2023-01-15T17:59:33.678Z,5.50
2023-01-15T18:02:30.959Z,5.70
2023-01-15T18:05:18.463Z,5.50
2023-01-15T18:12:54.161Z,5.50
2023-01-15T18:15:22.795Z,5.80
2023-01-15T18:17:56.246Z,5.60
2023-01-15T18:20:29.537Z,5.80
2023-01-15T18:23:02.894Z,5.90
2023-01-15T18:25:46.842Z,6.00
2023-01-15T18:28:20.213Z,5.60
2023-01-15T18:36:05.876Z,5.40
2023-01-15T18:38:41.425Z,5.50
2023-01-15T18:41:35.878Z,5.40
2023-01-15T18:44:22.060Z,4.90
2023-01-15T18:46:56.823Z,4.80
2023-01-15T18:49:30.676Z,4.80
2023-01-15T18:52:18.677Z,4.80
2023-01-15T18:59:58.811Z,5.50
2023-01-15T19:02:32.105Z,5.60
2023-01-15T19:05:03.724Z,5.40
2023-01-15T19:07:35.397Z,5.50
2023-01-15T19:10:04.888Z,5.50
2023-01-15T19:12:43.221Z,5.40
2023-01-15T19:15:34.341Z,5.20
2023-01-15T19:23:33.592Z,4.90
2023-01-15T19:26:07.042Z,5.30
2023-01-15T19:28:37.887Z,5.20
2023-01-15T19:31:27.687Z,5.10
2023-01-15T19:34:31.151Z,5.10
2023-01-15T19:36:50.766Z,4.90
2023-01-15T19:39:21.414Z,4.70
2023-01-15T19:50:21.204Z,5.00
2023-01-15T19:52:53.135Z,5.10
2023-01-15T19:55:28.269Z,5.10
2023-01-15T19:58:03.696Z,5.20
2023-01-15T20:00:36.971Z,5.20
2023-01-15T20:03:13.469Z,4.90
2023-01-15T20:05:48.242Z,4.70
2023-01-15T20:08:19.836Z,4.50
2023-01-15T20:15:57.387Z,4.30
2023-01-15T20:18:27.612Z,4.60
2023-01-15T20:20:55.783Z,4.40
2023-01-15T20:23:28.101Z,4.20
2023-01-15T20:26:07.675Z,4.20
2023-01-15T20:28:42.705Z,4.20
2023-01-15T20:31:18.314Z,4.10
2023-01-15T20:36:35.693Z,4.20
2023-01-15T20:39:09.106Z,4.70
2023-01-15T20:41:55.760Z,4.80
2023-01-15T20:44:41.980Z,4.60
2023-01-15T20:47:31.181Z,4.50
2023-01-15T20:50:00.120Z,4.40
2023-01-15T20:52:31.751Z,4.40
2023-01-15T20:57:46.075Z,4.50
2023-01-15T21:00:17.740Z,4.80
2023-01-15T21:02:51.724Z,5.00
2023-01-15T21:05:22.102Z,5.00
2023-01-15T21:07:50.462Z,5.10
2023-01-15T21:10:24.168Z,5.00
2023-01-15T21:12:55.789Z,4.90
2023-01-15T21:22:47.986Z,5.00
2023-01-15T21:25:16.810Z,4.70
2023-01-15T21:27:45.154Z,4.40
2023-01-15T21:30:18.721Z,4.50
2023-01-15T21:32:49.005Z,4.40
2023-01-15T21:35:16.738Z,4.50
2023-01-15T21:37:50.656Z,4.30
2023-01-15T21:40:18.967Z,4.40
2023-01-15T21:48:24.075Z,4.40
2023-01-15T21:50:55.373Z,4.20
2023-01-15T21:53:26.440Z,4.50
2023-01-15T21:56:00.460Z,4.50
2023-01-15T21:58:29.486Z,4.20
2023-01-15T22:00:57.738Z,4.20
2023-01-15T22:03:28.137Z,4.40
2023-01-15T22:08:37.285Z,4.60
2023-01-15T22:11:12.297Z,4.80
2023-01-15T22:13:42.059Z,4.80
2023-01-15T22:16:10.029Z,4.80
2023-01-15T22:18:42.433Z,4.80
2023-01-15T22:21:14.831Z,4.90
2023-01-15T22:23:43.523Z,5.10
2023-01-15T22:26:17.302Z,5.00
2023-01-15T22:33:47.808Z,4.60
2023-01-15T22:36:16.429Z,4.40
2023-01-15T22:38:46.453Z,4.50
2023-01-15T22:41:13.827Z,4.50
2023-01-15T22:43:42.052Z,4.40
2023-01-15T22:46:11.165Z,4.50
2023-01-15T22:48:40.387Z,4.50
2023-01-15T22:58:43.736Z,4.70
2023-01-15T23:01:13.772Z,4.80
2023-01-15T23:03:42.031Z,4.80
2023-01-15T23:06:11.216Z,4.80
2023-01-15T23:08:40.709Z,4.40
2023-01-15T23:11:12.940Z,4.50
2023-01-15T23:13:42.353Z,4.20
2023-01-15T23:24:10.544Z,4.40
2023-01-15T23:26:38.213Z,4.30
2023-01-15T23:29:05.741Z,4.30
2023-01-15T23:31:33.531Z,4.30
2023-01-15T23:34:01.553Z,4.30
2023-01-15T23:36:28.979Z,4.20
2023-01-15T23:38:56.779Z,4.10
2023-01-15T23:41:39.892Z,4.40
2023-01-15T23:49:31.717Z,4.20
2023-01-15T23:51:59.293Z,4.30
2023-01-15T23:54:28.274Z,4.40
2023-01-15T23:56:56.085Z,4.20
2023-01-15T23:59:23.516Z,4.20
